createdAt,value
2019-04-01T14:37:12.366Z,3.47
2019-04-01T14:42:17.838Z,4.43
2019-04-01T14:44:58.350Z,4.30
2019-04-01T14:47:27.013Z,6.37
2019-04-01T14:49:55.395Z,4.60
2019-04-01T14:52:32.300Z,5.03
2019-04-01T14:54:55.200Z,3.60
2019-04-01T14:57:23.671Z,3.97
2019-04-01T14:59:52.060Z,4.63
2019-04-01T15:02:20.441Z,5.20
2019-04-01T15:04:48.831Z,5.13
2019-04-01T15:07:18.324Z,5.10
2019-04-01T15:09:46.995Z,5.07
2019-04-01T15:12:15.353Z,5.80
2019-04-01T15:14:43.734Z,4.83
2019-04-01T15:17:12.103Z,5.47
2019-04-01T15:19:40.457Z,5.50
2019-04-01T15:22:08.846Z,5.13
2019-04-01T15:24:37.207Z,5.30
2019-04-01T15:27:05.594Z,5.63
2019-04-01T15:29:33.958Z,5.83
2019-04-01T15:32:02.339Z,4.67
2019-04-01T15:34:30.698Z,6.40
2019-04-01T15:36:59.094Z,5.17
2019-04-01T15:39:27.451Z,4.80
2019-04-01T15:41:55.865Z,5.27
2019-04-01T15:44:24.196Z,5.03
2019-04-01T15:46:52.578Z,5.80
2019-04-01T15:49:20.938Z,6.30
2019-04-01T15:51:49.327Z,4.63
2019-04-01T15:54:17.692Z,4.87
2019-04-01T15:56:46.083Z,4.50
2019-04-01T15:59:14.447Z,6.07
2019-04-01T16:01:42.833Z,6.53
2019-04-01T16:04:11.190Z,5.53
2019-04-01T16:06:39.584Z,5.27
2019-04-01T16:09:07.952Z,5.77
2019-04-01T16:11:36.345Z,6.47
2019-04-01T16:14:04.714Z,6.47
2019-04-01T16:16:33.105Z,6.80
2019-04-01T16:19:01.729Z,5.53
2019-04-01T16:21:31.537Z,5.30
2019-04-01T16:23:59.992Z,6.70
2019-04-01T16:26:28.379Z,5.73
2019-04-01T16:28:56.816Z,6.40
2019-04-01T16:31:26.238Z,6.70
2019-04-01T16:33:55.264Z,6.67
2019-04-01T16:36:23.654Z,5.60
2019-04-01T16:38:52.015Z,6.37
2019-04-01T16:41:20.412Z,6.53
2019-04-01T16:43:48.767Z,5.17
2019-04-01T16:46:17.163Z,5.40
2019-04-01T16:48:46.606Z,6.00
2019-04-01T16:51:15.062Z,6.17
2019-04-01T16:53:44.498Z,5.83
2019-04-01T16:56:13.108Z,5.83
2019-04-01T16:58:41.472Z,5.97
2019-04-01T17:01:09.979Z,5.67
2019-04-01T17:03:38.366Z,5.00
2019-04-01T17:06:06.732Z,5.80
2019-04-01T17:08:35.122Z,5.67
2019-04-01T17:11:03.493Z,5.70
2019-04-01T17:13:31.878Z,5.73
2019-04-01T17:16:01.670Z,6.40
2019-04-01T17:18:30.315Z,5.67
2019-04-01T17:20:58.671Z,6.50
2019-04-01T17:23:28.208Z,6.60
2019-04-01T17:25:56.933Z,6.30
2019-04-01T17:28:25.323Z,6.63
2019-04-01T17:30:53.738Z,7.17
2019-04-01T17:33:22.128Z,6.63
2019-04-01T17:35:50.490Z,6.20
2019-04-01T17:38:18.881Z,6.30
2019-04-01T17:40:47.247Z,6.90
2019-04-01T17:43:16.494Z,7.43
2019-04-01T17:45:45.199Z,7.20
2019-04-01T17:48:13.590Z,7.50
2019-04-01T17:50:41.962Z,7.80
2019-04-01T17:53:10.355Z,7.60
2019-04-01T17:55:38.713Z,7.77
2019-04-01T17:58:07.112Z,8.63
2019-04-01T18:00:37.114Z,9.00
2019-04-01T18:03:05.927Z,8.70
2019-04-01T18:05:35.521Z,8.53
2019-04-01T18:08:05.043Z,8.93
2019-04-01T18:10:33.813Z,8.87
2019-04-01T18:13:03.186Z,9.97
2019-04-01T18:15:31.556Z,9.47
2019-04-01T18:18:00.058Z,10.97
2019-04-01T18:20:28.426Z,13.43
2019-04-01T18:22:57.161Z,11.70
2019-04-01T18:25:25.893Z,10.63
2019-04-01T18:27:54.261Z,9.40
2019-04-01T18:30:22.642Z,9.50
2019-04-01T18:32:55.019Z,9.67
2019-04-01T18:35:21.044Z,10.23
2019-04-01T18:37:49.410Z,10.80
2019-04-01T18:40:31.448Z,12.33
2019-04-01T18:42:47.806Z,10.40
2019-04-01T18:45:16.195Z,10.37
2019-04-01T18:47:44.558Z,10.20
2019-04-01T18:50:14.264Z,10.00
2019-04-01T18:52:42.808Z,9.30
2019-04-01T18:55:11.192Z,10.27
2019-04-01T18:57:39.775Z,10.50
2019-04-01T19:00:12.065Z,11.13
2019-04-01T19:02:41.291Z,9.73
2019-04-01T19:05:12.186Z,10.47
2019-04-01T19:07:40.539Z,10.13
2019-04-01T19:10:08.928Z,10.70
2019-04-01T19:12:37.286Z,10.80
2019-04-01T19:15:07.174Z,10.10
2019-04-01T19:17:35.470Z,9.93
2019-04-01T19:20:06.206Z,9.60
2019-04-01T19:22:34.566Z,9.20
2019-04-01T19:25:02.942Z,9.27
2019-04-01T19:27:31.307Z,9.47
2019-04-01T19:29:59.688Z,8.73
2019-04-01T19:32:28.043Z,7.80
2019-04-01T19:34:56.431Z,7.43
2019-04-01T19:37:24.790Z,6.87
2019-04-01T19:39:53.176Z,7.53
2019-04-01T19:42:21.534Z,6.47
2019-04-01T19:44:49.895Z,7.07
2019-04-01T19:47:18.279Z,6.67
2019-04-01T19:49:46.641Z,7.87
2019-04-01T19:52:15.026Z,7.60
2019-04-01T19:54:43.385Z,7.50
2019-04-01T19:57:11.770Z,7.03
2019-04-01T19:59:40.123Z,6.10
2019-04-01T20:02:09.715Z,7.40
2019-04-01T20:04:38.278Z,7.13
2019-04-01T20:07:06.676Z,7.90
2019-04-01T20:09:35.035Z,7.57
2019-04-01T20:12:03.426Z,7.20
2019-04-01T20:14:31.781Z,6.57
2019-04-01T20:17:02.013Z,6.30
2019-04-01T20:19:30.147Z,6.80
2019-04-01T20:21:58.519Z,7.57
2019-04-01T20:24:26.883Z,7.97
2019-04-01T20:26:55.279Z,8.60
2019-04-01T20:29:23.624Z,7.63
2019-04-01T20:31:52.010Z,6.93
2019-04-01T20:34:21.453Z,8.73
2019-04-01T20:36:50.412Z,7.67
2019-04-01T20:39:18.758Z,8.17
2019-04-01T20:41:47.142Z,8.70
2019-04-01T20:44:15.510Z,9.47
2019-04-01T20:46:43.910Z,7.97
2019-04-01T20:49:12.258Z,8.63
2019-04-01T20:51:40.642Z,9.43
2019-04-01T20:54:09.070Z,9.07
2019-04-01T20:56:37.773Z,9.03
2019-04-01T20:59:06.280Z,9.43
2019-04-01T21:01:35.286Z,9.30
2019-04-01T21:04:04.094Z,10.27
2019-04-01T21:06:32.454Z,10.20
2019-04-01T21:09:00.834Z,8.13
2019-04-01T21:11:29.199Z,8.27
2019-04-01T21:13:57.585Z,9.13
2019-04-01T21:16:26.015Z,7.27
2019-04-01T21:18:54.677Z,8.57
2019-04-01T21:21:23.248Z,8.47
2019-04-01T21:23:51.649Z,9.40
2019-04-01T21:26:20.074Z,8.67
2019-04-01T21:28:48.458Z,8.10
2019-04-01T21:31:17.325Z,9.90
2019-04-01T21:33:46.244Z,10.97
2019-04-01T21:36:16.022Z,7.53
2019-04-01T21:38:44.491Z,7.97
2019-04-01T21:41:12.854Z,7.77
2019-04-01T21:43:41.246Z,7.50
2019-04-01T21:46:09.594Z,8.47
2019-04-01T21:48:39.050Z,7.37
2019-04-01T21:51:07.538Z,7.33
2019-04-01T21:53:35.918Z,7.10
2019-04-01T21:56:04.282Z,7.80
2019-04-01T21:58:32.665Z,7.30
2019-04-01T22:01:01.390Z,7.37
2019-04-01T22:03:29.771Z,8.37
2019-04-01T22:05:58.133Z,9.43
2019-04-01T22:08:26.514Z,7.47
2019-04-01T22:10:54.942Z,7.30
2019-04-01T22:13:23.327Z,7.80
2019-04-01T22:15:51.677Z,7.20
2019-04-01T22:18:19.990Z,7.67
2019-04-01T22:20:48.346Z,7.87
2019-04-01T22:23:16.732Z,7.53
2019-04-01T22:25:45.094Z,8.13
2019-04-01T22:28:13.518Z,7.53
2019-04-01T22:30:41.904Z,6.63
2019-04-01T22:33:11.178Z,7.67
2019-04-01T22:35:41.523Z,7.07
2019-04-01T22:38:09.962Z,7.47
2019-04-01T22:40:38.342Z,7.33
2019-04-01T22:43:06.698Z,7.83
2019-04-01T22:45:35.018Z,9.50
2019-04-01T22:48:03.366Z,7.90
2019-04-01T22:50:31.743Z,7.37
2019-04-01T22:53:00.086Z,7.77
2019-04-01T22:55:28.736Z,8.03
2019-04-01T22:57:57.137Z,8.13
2019-04-01T23:00:25.586Z,8.53
2019-04-01T23:02:53.947Z,7.83
2019-04-01T23:05:22.330Z,8.37
2019-04-01T23:07:50.693Z,7.50
2019-04-01T23:10:19.069Z,8.50
2019-04-01T23:12:47.430Z,7.20
2019-04-01T23:15:15.839Z,7.50
2019-04-01T23:17:44.441Z,6.83
2019-04-01T23:20:12.818Z,7.23
2019-04-01T23:22:41.182Z,6.73
2019-04-01T23:25:09.583Z,6.83
2019-04-01T23:27:37.927Z,7.47
2019-04-01T23:30:08.284Z,6.93
2019-04-01T23:32:36.646Z,7.10
2019-04-01T23:35:06.866Z,7.03
2019-04-01T23:37:35.153Z,8.07
2019-04-01T23:40:04.273Z,7.10
2019-04-01T23:42:32.631Z,7.37
2019-04-01T23:45:01.019Z,6.70
2019-04-01T23:47:30.503Z,6.90
2019-04-01T23:49:58.974Z,7.37
2019-04-01T23:52:27.261Z,7.23
2019-04-01T23:54:55.618Z,7.30
2019-04-01T23:57:25.004Z,7.17
2019-04-01T23:59:53.478Z,7.40
